»·PEaware :: WICKED22 KLSV-KLSV

WICKED22 :: KLSV-KLSV

FLIGHT INFORMATION

Flight Status: Arrived
Operator: Unknown
More flights by this operator :: More flights under this callsign
Pilot: Nathan A. (30457)
Aircraft: FAIRCHILD A-10 THUNDERBOLT 2
(A10)
More flights by this aircraft type
Origin: KLSV Nellis AFB
United States
Destination: KLSV Nellis AFB
United States
More flights between these airports :: More routes between these airports
Route: +
File this flight plan on PilotEdge
Remarks:
Altitude:
(Current/Filed)
6,500ft
Speed:
(Current/Filed)
0kts
Departed: 26-Jul-20 04:23 PM
Arrived: 26-Jul-20 04:57 PM
Distance/Time
Traveled:
1nm/0:34
Distance/Time
To Go:
Arrived

Flight Plot

Page will automatically refresh every two minutes.


Map Options




Map Legend


Flown Route
Filed Route
Departure Airport
Arrival Airport
Navaid (VOR, NDB)
Fix

Horizontal Profiles

Position Reports

Time Latitude Longitude Heading Altitude Ground
Speed
26-Jul-20 16:13 36.222596 -115.039467 311 1849ft 0kts
26-Jul-20 16:14 36.222596 -115.039467 311 1849ft 0kts
26-Jul-20 16:15 36.222596 -115.039467 311 1849ft 0kts
26-Jul-20 16:16 36.222596 -115.039467 311 1849ft 0kts
26-Jul-20 16:17 36.222596 -115.039467 311 1849ft 0kts
26-Jul-20 16:18 36.222596 -115.039467 311 1849ft 0kts
26-Jul-20 16:19 36.222692 -115.040417 237 1848ft 9kts
26-Jul-20 16:20 36.224187 -115.043072 310 1848ft 2kts
26-Jul-20 16:21 36.224220 -115.043117 311 1848ft 2kts
26-Jul-20 16:22 36.229788 -115.038739 40 1850ft 119kts
26-Jul-20 16:23 36.273901 -115.021382 328 3867ft 195kts
26-Jul-20 16:24 36.325283 -115.058176 329 6449ft 229kts
26-Jul-20 16:25 36.384581 -115.098678 335 6670ft 236kts
26-Jul-20 16:26 36.430073 -115.152562 302 6852ft 237kts
26-Jul-20 16:27 36.455761 -115.231246 291 6907ft 256kts
26-Jul-20 16:28 36.483730 -115.316597 290 6899ft 274kts
26-Jul-20 16:29 36.519655 -115.397766 312 6924ft 269kts
26-Jul-20 16:30 36.573117 -115.460120 6 5143ft 255kts
26-Jul-20 16:31 36.652704 -115.472550 20 3300ft 302kts
26-Jul-20 16:32 36.722355 -115.438968 318 3704ft 292kts
26-Jul-20 16:33 36.768543 -115.515501 290 4862ft 271kts
26-Jul-20 16:34 36.800482 -115.560972 353 5545ft 226kts
26-Jul-20 16:35 36.865824 -115.612378 313 4206ft 288kts
26-Jul-20 16:36 36.909366 -115.686223 338 5710ft 170kts
26-Jul-20 16:37 36.878614 -115.725323 294 5963ft 260kts
26-Jul-20 16:38 36.887693 -115.678700 145 5121ft 281kts
26-Jul-20 16:39 36.895183 -115.679908 276 4442ft 260kts
26-Jul-20 16:40 36.853257 -115.680035 105 6904ft 273kts
26-Jul-20 16:41 36.910235 -115.661457 324 6785ft 335kts
26-Jul-20 16:42 36.883180 -115.635834 159 7235ft 304kts
26-Jul-20 16:43 36.807830 -115.575738 140 7267ft 337kts
26-Jul-20 16:44 36.738963 -115.507570 141 9694ft 309kts
26-Jul-20 16:45 36.666782 -115.438961 142 9776ft 332kts
26-Jul-20 16:46 36.592321 -115.368901 142 9772ft 335kts
26-Jul-20 16:47 36.519316 -115.300605 142 9768ft 318kts
26-Jul-20 16:48 36.448220 -115.234357 142 9801ft 326kts
26-Jul-20 16:49 36.364370 -115.183520 158 8257ft 350kts
26-Jul-20 16:50 36.280262 -115.140584 159 7229ft 318kts
26-Jul-20 16:51 36.199562 -115.099628 145 4425ft 316kts
26-Jul-20 16:52 36.234587 -115.033016 43 2729ft 224kts
26-Jul-20 16:53 36.243489 -115.057706 231 2692ft 162kts
26-Jul-20 16:54 36.210564 -115.066352 92 2713ft 163kts
26-Jul-20 16:55 36.234699 -115.033500 41 1850ft 109kts
26-Jul-20 16:56 36.244928 -115.021013 116 1860ft 16kts
26-Jul-20 16:57 36.240362 -115.023892 221 1855ft 20kts
26-Jul-20 16:58 36.236547 -115.028022 219 1852ft 18kts
26-Jul-20 16:59 36.232272 -115.031248 180 1850ft 22kts
26-Jul-20 17:00 36.228354 -115.034132 182 1850ft 14kts
26-Jul-20 17:01 36.225072 -115.036292 220 1850ft 16kts
26-Jul-20 17:02 36.222544 -115.039405 315 1849ft 7kts

Navigation Log

Ident Type
Flight plan parsing failed, navigation log unavailable